sensor_id;sensor_type;location;lat;lon;timestamp;pressure;altitude;pressure_sealevel;temperature;humidity
71151;BME280;59071;42.138;24.768;2022-09-01T00:01:56;99371.13;;;23.34;61.60
71151;BME280;59071;42.138;24.768;2022-09-01T00:04:23;99371.63;;;23.36;61.25
71151;BME280;59071;42.138;24.768;2022-09-01T00:06:53;99368.53;;;23.57;60.80
71151;BME280;59071;42.138;24.768;2022-09-01T00:09:20;99355.84;;;23.85;59.61
71151;BME280;59071;42.138;24.768;2022-09-01T00:11:50;99352.22;;;23.43;60.85
71151;BME280;59071;42.138;24.768;2022-09-01T00:14:16;99351.84;;;23.17;61.92
71151;BME280;59071;42.138;24.768;2022-09-01T00:16:42;99349.09;;;23.03;62.42
71151;BME280;59071;42.138;24.768;2022-09-01T00:19:07;99356.88;;;23.42;60.97
71151;BME280;59071;42.138;24.768;2022-09-01T00:21:37;99354.97;;;23.57;60.19
71151;BME280;59071;42.138;24.768;2022-09-01T00:24:03;99367.50;;;22.68;63.41
71151;BME280;59071;42.138;24.768;2022-09-01T00:26:29;99366.88;;;22.33;64.80
71151;BME280;59071;42.138;24.768;2022-09-01T00:28:55;99358.88;;;22.18;65.62
71151;BME280;59071;42.138;24.768;2022-09-01T00:31:20;99365.59;;;22.69;63.75
71151;BME280;59071;42.138;24.768;2022-09-01T00:33:47;99363.38;;;22.52;64.13
71151;BME280;59071;42.138;24.768;2022-09-01T00:36:13;99362.41;;;22.42;64.99
71151;BME280;59071;42.138;24.768;2022-09-01T00:38:39;99365.28;;;22.51;64.77
71151;BME280;59071;42.138;24.768;2022-09-01T00:41:05;99362.53;;;22.75;63.93
71151;BME280;59071;42.138;24.768;2022-09-01T00:43:52;99357.88;;;23.47;61.45
71151;BME280;59071;42.138;24.768;2022-09-01T00:46:21;99352.81;;;23.73;60.10
71151;BME280;59071;42.138;24.768;2022-09-01T00:48:56;99354.44;;;23.08;62.52
71151;BME280;59071;42.138;24.768;2022-09-01T00:51:24;99353.13;;;22.87;63.27
71151;BME280;59071;42.138;24.768;2022-09-01T00:53:51;99353.16;;;23.06;62.40
71151;BME280;59071;42.138;24.768;2022-09-01T00:56:17;99345.50;;;23.08;62.04
71151;BME280;59071;42.138;24.768;2022-09-01T00:58:42;99342.00;;;23.54;59.93
71151;BME280;59071;42.138;24.768;2022-09-01T01:01:10;99339.75;;;23.09;61.54
71151;BME280;59071;42.138;24.768;2022-09-01T01:03:36;99356.88;;;22.91;62.26
71151;BME280;59071;42.138;24.768;2022-09-01T01:06:06;99351.84;;;22.98;62.08
71151;BME280;59071;42.138;24.768;2022-09-01T01:08:36;99366.06;;;23.28;60.84
71151;BME280;59071;42.138;24.768;2022-09-01T01:11:13;99372.19;;;23.00;61.61
71151;BME280;59071;42.138;24.768;2022-09-01T01:16:24;99364.69;;;22.35;64.87
71151;BME280;59071;42.138;24.768;2022-09-01T01:18:51;99366.38;;;22.50;64.21
71151;BME280;59071;42.138;24.768;2022-09-01T01:21:20;99356.94;;;22.86;62.80
71151;BME280;59071;42.138;24.768;2022-09-01T01:26:49;99359.69;;;22.42;65.12
71151;BME280;59071;42.138;24.768;2022-09-01T01:29:15;99356.69;;;22.01;66.65
71151;BME280;59071;42.138;24.768;2022-09-01T01:31:42;99361.69;;;22.13;66.49
71151;BME280;59071;42.138;24.768;2022-09-01T01:34:07;99361.81;;;22.21;66.15
71151;BME280;59071;42.138;24.768;2022-09-01T01:36:35;99363.16;;;22.24;66.53
71151;BME280;59071;42.138;24.768;2022-09-01T01:39:13;99367.91;;;22.13;67.14
71151;BME280;59071;42.138;24.768;2022-09-01T01:41:41;99365.94;;;22.19;66.70
71151;BME280;59071;42.138;24.768;2022-09-01T01:44:11;99369.97;;;22.21;66.29
71151;BME280;59071;42.138;24.768;2022-09-01T01:46:40;99372.25;;;22.76;64.40
71151;BME280;59071;42.138;24.768;2022-09-01T01:49:07;99370.63;;;22.37;65.79
71151;BME280;59071;42.138;24.768;2022-09-01T01:51:33;99375.03;;;22.04;67.38
71151;BME280;59071;42.138;24.768;2022-09-01T01:53:59;99372.34;;;22.04;67.23
71151;BME280;59071;42.138;24.768;2022-09-01T01:56:31;99371.44;;;22.57;65.29
71151;BME280;59071;42.138;24.768;2022-09-01T01:58:57;99371.88;;;21.73;68.19
71151;BME280;59071;42.138;24.768;2022-09-01T02:01:28;99368.88;;;21.45;70.15
71151;BME280;59071;42.138;24.768;2022-09-01T02:03:57;99370.19;;;21.47;69.69
71151;BME280;59071;42.138;24.768;2022-09-01T02:06:24;99364.50;;;22.02;67.37
71151;BME280;59071;42.138;24.768;2022-09-01T02:08:51;99363.25;;;21.36;70.23
71151;BME280;59071;42.138;24.768;2022-09-01T02:11:20;99358.28;;;21.43;69.82
71151;BME280;59071;42.138;24.768;2022-09-01T02:13:46;99364.50;;;21.49;69.81
71151;BME280;59071;42.138;24.768;2022-09-01T02:16:13;99369.41;;;21.76;68.95
71151;BME280;59071;42.138;24.768;2022-09-01T02:18:45;99368.78;;;22.33;66.50
71151;BME280;59071;42.138;24.768;2022-09-01T02:21:17;99381.16;;;21.91;67.78
71151;BME280;59071;42.138;24.768;2022-09-01T02:23:56;99368.88;;;21.40;69.99
71151;BME280;59071;42.138;24.768;2022-09-01T02:26:32;99374.47;;;21.19;71.46
71151;BME280;59071;42.138;24.768;2022-09-01T02:29:00;99379.91;;;21.54;69.61
71151;BME280;59071;42.138;24.768;2022-09-01T02:31:30;99375.38;;;21.73;68.50
71151;BME280;59071;42.138;24.768;2022-09-01T02:33:57;99374.41;;;21.59;69.80
71151;BME280;59071;42.138;24.768;2022-09-01T02:36:23;99377.09;;;21.64;69.26
71151;BME280;59071;42.138;24.768;2022-09-01T02:38:50;99378.91;;;21.98;67.82
71151;BME280;59071;42.138;24.768;2022-09-01T02:41:16;99372.53;;;22.13;67.47
71151;BME280;59071;42.138;24.768;2022-09-01T02:43:45;99368.91;;;21.93;67.92
71151;BME280;59071;42.138;24.768;2022-09-01T02:46:11;99363.75;;;21.97;67.91
71151;BME280;59071;42.138;24.768;2022-09-01T02:48:39;99366.69;;;22.00;67.83
71151;BME280;59071;42.138;24.768;2022-09-01T02:51:08;99366.16;;;21.98;67.94
71151;BME280;59071;42.138;24.768;2022-09-01T02:53:34;99378.28;;;22.30;66.32
71151;BME280;59071;42.138;24.768;2022-09-01T02:56:01;99363.16;;;22.00;67.45
71151;BME280;59071;42.138;24.768;2022-09-01T02:58:29;99371.34;;;21.95;67.76
71151;BME280;59071;42.138;24.768;2022-09-01T03:00:57;99375.41;;;21.97;67.66
71151;BME280;59071;42.138;24.768;2022-09-01T03:03:24;99374.28;;;21.98;67.10
71151;BME280;59071;42.138;24.768;2022-09-01T03:05:51;99373.88;;;22.58;64.13
71151;BME280;59071;42.138;24.768;2022-09-01T03:08:21;99373.31;;;21.89;67.15
71151;BME280;59071;42.138;24.768;2022-09-01T03:10:48;99366.97;;;21.75;67.56
71151;BME280;59071;42.138;24.768;2022-09-01T03:13:17;99363.97;;;21.76;67.23
71151;BME280;59071;42.138;24.768;2022-09-01T03:15:44;99372.59;;;22.32;64.63
71151;BME280;59071;42.138;24.768;2022-09-01T03:18:11;99366.06;;;21.84;66.63
71151;BME280;59071;42.138;24.768;2022-09-01T03:20:40;99369.63;;;21.51;68.40
71151;BME280;59071;42.138;24.768;2022-09-01T03:23:09;99370.16;;;21.53;68.00
71151;BME280;59071;42.138;24.768;2022-09-01T03:25:37;99376.81;;;22.14;63.99
71151;BME280;59071;42.138;24.768;2022-09-01T03:28:03;99371.09;;;21.67;67.11
71151;BME280;59071;42.138;24.768;2022-09-01T03:30:31;99377.72;;;21.56;67.63
71151;BME280;59071;42.138;24.768;2022-09-01T03:32:57;99356.63;;;21.53;67.60
71151;BME280;59071;42.138;24.768;2022-09-01T03:35:25;99389.63;;;22.08;64.72
71151;BME280;59071;42.138;24.768;2022-09-01T03:37:53;99384.19;;;22.08;65.39
71151;BME280;59071;42.138;24.768;2022-09-01T03:40:27;99385.41;;;21.73;66.52
71151;BME280;59071;42.138;24.768;2022-09-01T03:42:54;99383.69;;;21.53;67.52
71151;BME280;59071;42.138;24.768;2022-09-01T03:45:20;99384.19;;;21.55;67.89
71151;BME280;59071;42.138;24.768;2022-09-01T03:47:46;99385.16;;;21.69;66.92
71151;BME280;59071;42.138;24.768;2022-09-01T03:50:14;99375.34;;;22.27;63.37
71151;BME280;59071;42.138;24.768;2022-09-01T03:52:55;99372.66;;;21.73;66.78
71151;BME280;59071;42.138;24.768;2022-09-01T03:55:27;99374.63;;;21.67;67.41
71151;BME280;59071;42.138;24.768;2022-09-01T03:57:59;99377.09;;;21.64;67.11
71151;BME280;59071;42.138;24.768;2022-09-01T04:00:42;99378.75;;;21.60;67.08
71151;BME280;59071;42.138;24.768;2022-09-01T04:03:09;99377.94;;;21.59;67.11
71151;BME280;59071;42.138;24.768;2022-09-01T04:05:37;99381.41;;;21.65;67.25
71151;BME280;59071;42.138;24.768;2022-09-01T04:08:05;99374.94;;;21.61;67.31
71151;BME280;59071;42.138;24.768;2022-09-01T04:10:36;99378.31;;;21.77;67.13
71151;BME280;59071;42.138;24.768;2022-09-01T04:13:02;99382.59;;;21.83;66.41
71151;BME280;59071;42.138;24.768;2022-09-01T04:15:29;99389.63;;;22.08;65.49
71151;BME280;59071;42.138;24.768;2022-09-01T04:17:56;99392.84;;;22.10;65.58
71151;BME280;59071;42.138;24.768;2022-09-01T04:20:41;99388.50;;;22.14;65.06
71151;BME280;59071;42.138;24.768;2022-09-01T04:26:15;99387.78;;;22.52;63.40
71151;BME280;59071;42.138;24.768;2022-09-01T04:28:47;99381.34;;;22.67;62.77
71151;BME280;59071;42.138;24.768;2022-09-01T04:31:16;99382.88;;;22.92;61.96
71151;BME280;59071;42.138;24.768;2022-09-01T04:33:44;99380.53;;;23.23;60.84
71151;BME280;59071;42.138;24.768;2022-09-01T04:36:26;99380.59;;;23.37;60.10
71151;BME280;59071;42.138;24.768;2022-09-01T04:38:57;99371.75;;;23.12;60.98
71151;BME280;59071;42.138;24.768;2022-09-01T04:41:30;99384.84;;;23.24;60.53
71151;BME280;59071;42.138;24.768;2022-09-01T04:43:58;99387.09;;;23.36;60.24
71151;BME280;59071;42.138;24.768;2022-09-01T04:46:26;99387.72;;;23.79;58.67
71151;BME280;59071;42.138;24.768;2022-09-01T04:48:57;99386.72;;;23.89;57.77
71151;BME280;59071;42.138;24.768;2022-09-01T04:51:23;99380.97;;;24.46;55.54
71151;BME280;59071;42.138;24.768;2022-09-01T04:53:55;99393.50;;;24.33;55.67
71151;BME280;59071;42.138;24.768;2022-09-01T04:56:23;99388.25;;;24.51;55.38
71151;BME280;59071;42.138;24.768;2022-09-01T04:58:50;99389.81;;;24.80;53.88
71151;BME280;59071;42.138;24.768;2022-09-01T05:01:19;99387.31;;;25.06;53.18
71151;BME280;59071;42.138;24.768;2022-09-01T05:03:45;99386.41;;;25.55;51.85
71151;BME280;59071;42.138;24.768;2022-09-01T05:06:17;99389.63;;;25.35;52.21
71151;BME280;59071;42.138;24.768;2022-09-01T05:08:44;99382.72;;;25.29;52.68
71151;BME280;59071;42.138;24.768;2022-09-01T05:11:11;99373.28;;;25.58;50.76
71151;BME280;59071;42.138;24.768;2022-09-01T05:13:38;99381.31;;;25.63;51.25
71151;BME280;59071;42.138;24.768;2022-09-01T05:16:07;99381.69;;;26.10;50.00
71151;BME280;59071;42.138;24.768;2022-09-01T05:18:38;99378.25;;;26.44;48.88
71151;BME280;59071;42.138;24.768;2022-09-01T05:21:07;99379.13;;;26.71;47.39
71151;BME280;59071;42.138;24.768;2022-09-01T05:23:37;99369.41;;;26.30;48.16
71151;BME280;59071;42.138;24.768;2022-09-01T05:26:05;99378.66;;;26.11;48.80
71151;BME280;59071;42.138;24.768;2022-09-01T05:28:42;99383.22;;;26.33;48.25
71151;BME280;59071;42.138;24.768;2022-09-01T05:31:08;99381.81;;;26.53;47.49
71151;BME280;59071;42.138;24.768;2022-09-01T05:33:34;99379.78;;;26.77;46.69
71151;BME280;59071;42.138;24.768;2022-09-01T05:36:02;99382.00;;;27.53;45.37
71151;BME280;59071;42.138;24.768;2022-09-01T05:38:32;99376.88;;;26.99;45.49
71151;BME280;59071;42.138;24.768;2022-09-01T05:41:03;99383.50;;;26.81;46.45
71151;BME280;59071;42.138;24.768;2022-09-01T05:43:33;99394.25;;;27.29;45.21
71151;BME280;59071;42.138;24.768;2022-09-01T05:46:00;99390.63;;;27.64;44.28
71151;BME280;59071;42.138;24.768;2022-09-01T05:48:28;99396.47;;;27.45;44.09
71151;BME280;59071;42.138;24.768;2022-09-01T05:50:56;99385.41;;;28.27;43.00
71151;BME280;59071;42.138;24.768;2022-09-01T05:53:26;99391.66;;;28.06;43.10
71151;BME280;59071;42.138;24.768;2022-09-01T05:55:55;99387.19;;;28.23;42.80
71151;BME280;59071;42.138;24.768;2022-09-01T05:58:24;99391.91;;;28.73;42.05
71151;BME280;59071;42.138;24.768;2022-09-01T06:00:51;99396.13;;;29.13;41.50
71151;BME280;59071;42.138;24.768;2022-09-01T06:03:19;99393.72;;;29.78;40.29
71151;BME280;59071;42.138;24.768;2022-09-01T06:05:45;99399.78;;;29.38;40.40
71151;BME280;59071;42.138;24.768;2022-09-01T06:08:13;99389.22;;;29.61;40.39
71151;BME280;59071;42.138;24.768;2022-09-01T06:10:40;99394.41;;;30.12;39.39
71151;BME280;59071;42.138;24.768;2022-09-01T06:13:07;99397.72;;;30.17;39.78
71151;BME280;59071;42.138;24.768;2022-09-01T06:15:37;99395.59;;;30.88;38.79
71151;BME280;59071;42.138;24.768;2022-09-01T06:18:08;99402.91;;;30.84;38.19
71151;BME280;59071;42.138;24.768;2022-09-01T06:20:38;99390.56;;;30.37;39.07
71151;BME280;59071;42.138;24.768;2022-09-01T06:23:05;99393.53;;;30.45;39.29
71151;BME280;59071;42.138;24.768;2022-09-01T06:25:30;99388.22;;;30.52;38.56
71151;BME280;59071;42.138;24.768;2022-09-01T06:27:57;99391.88;;;31.09;37.99
71151;BME280;59071;42.138;24.768;2022-09-01T06:30:23;99396.13;;;31.63;36.88
71151;BME280;59071;42.138;24.768;2022-09-01T06:32:52;99379.66;;;30.29;38.98
71151;BME280;59071;42.138;24.768;2022-09-01T06:35:20;99383.31;;;30.57;39.26
71151;BME280;59071;42.138;24.768;2022-09-01T06:37:46;99393.06;;;30.43;38.79
71151;BME280;59071;42.138;24.768;2022-09-01T06:40:14;99387.09;;;30.53;38.51
71151;BME280;59071;42.138;24.768;2022-09-01T06:42:47;99390.91;;;31.45;37.25
71151;BME280;59071;42.138;24.768;2022-09-01T06:45:18;99391.78;;;31.05;38.17
71151;BME280;59071;42.138;24.768;2022-09-01T06:47:46;99390.91;;;31.45;37.58
71151;BME280;59071;42.138;24.768;2022-09-01T06:50:13;99386.59;;;31.60;37.18
71151;BME280;59071;42.138;24.768;2022-09-01T06:52:42;99389.63;;;31.87;36.79
71151;BME280;59071;42.138;24.768;2022-09-01T06:55:12;99387.03;;;32.77;35.86
71151;BME280;59071;42.138;24.768;2022-09-01T06:57:40;99390.00;;;32.17;36.04
71151;BME280;59071;42.138;24.768;2022-09-01T07:00:10;99387.25;;;32.17;36.52
71151;BME280;59071;42.138;24.768;2022-09-01T07:02:53;99384.06;;;32.15;35.98
71151;BME280;59071;42.138;24.768;2022-09-01T07:05:19;99386.28;;;32.25;35.93
71151;BME280;59071;42.138;24.768;2022-09-01T07:07:46;99385.16;;;33.01;35.38
71151;BME280;59071;42.138;24.768;2022-09-01T07:10:19;99389.50;;;32.82;34.89
71151;BME280;59071;42.138;24.768;2022-09-01T07:12:48;99384.63;;;32.76;35.72
71151;BME280;59071;42.138;24.768;2022-09-01T07:15:14;99381.97;;;32.99;34.62
71151;BME280;59071;42.138;24.768;2022-09-01T07:17:52;99383.78;;;33.10;34.90
71151;BME280;59071;42.138;24.768;2022-09-01T07:20:27;99384.63;;;33.77;33.64
71151;BME280;59071;42.138;24.768;2022-09-01T07:23:04;99385.88;;;32.98;33.93
71151;BME280;59071;42.138;24.768;2022-09-01T07:25:29;99372.97;;;32.82;34.23
71151;BME280;59071;42.138;24.768;2022-09-01T07:27:56;99374.88;;;32.98;33.63
71151;BME280;59071;42.138;24.768;2022-09-01T07:30:24;99368.03;;;32.91;33.23
71151;BME280;59071;42.138;24.768;2022-09-01T07:32:49;99370.09;;;33.80;32.10
71151;BME280;59071;42.138;24.768;2022-09-01T07:35:18;99354.63;;;33.29;33.26
71151;BME280;59071;42.138;24.768;2022-09-01T07:37:45;99371.16;;;33.29;33.71
71151;BME280;59071;42.138;24.768;2022-09-01T07:40:14;99368.47;;;33.33;33.25
71151;BME280;59071;42.138;24.768;2022-09-01T07:42:46;99360.00;;;33.45;32.62
71151;BME280;59071;42.138;24.768;2022-09-01T07:45:14;99360.34;;;34.13;31.05
71151;BME280;59071;42.138;24.768;2022-09-01T07:47:42;99361.94;;;34.14;31.11
71151;BME280;59071;42.138;24.768;2022-09-01T07:50:10;99362.34;;;33.89;31.87
71151;BME280;59071;42.138;24.768;2022-09-01T07:52:39;99363.41;;;33.81;32.20
71151;BME280;59071;42.138;24.768;2022-09-01T07:55:12;99355.72;;;33.94;32.41
71151;BME280;59071;42.138;24.768;2022-09-01T07:57:39;99351.31;;;34.39;31.05
71151;BME280;59071;42.138;24.768;2022-09-01T08:00:08;99353.66;;;34.37;31.39
71151;BME280;59071;42.138;24.768;2022-09-01T08:02:34;99348.94;;;34.14;31.49
71151;BME280;59071;42.138;24.768;2022-09-01T08:05:07;99346.75;;;34.23;31.61
71151;BME280;59071;42.138;24.768;2022-09-01T08:07:33;99344.13;;;34.34;31.73
71151;BME280;59071;42.138;24.768;2022-09-01T08:09:58;99350.00;;;34.33;31.79
71151;BME280;59071;42.138;24.768;2022-09-01T08:12:24;99354.38;;;34.34;31.08
71151;BME280;59071;42.138;24.768;2022-09-01T08:14:49;99346.41;;;34.28;30.92
71151;BME280;59071;42.138;24.768;2022-09-01T08:17:17;99346.00;;;34.57;31.26
71151;BME280;59071;42.138;24.768;2022-09-01T08:19:44;99342.44;;;34.26;30.41
71151;BME280;59071;42.138;24.768;2022-09-01T08:22:11;99340.78;;;34.21;30.64
71151;BME280;59071;42.138;24.768;2022-09-01T08:24:37;99320.41;;;34.60;30.25
71151;BME280;59071;42.138;24.768;2022-09-01T08:27:02;99334.09;;;33.26;32.09
71151;BME280;59071;42.138;24.768;2022-09-01T08:29:28;99335.00;;;33.11;32.85
71151;BME280;59071;42.138;24.768;2022-09-01T08:31:54;99334.19;;;33.34;32.41
71151;BME280;59071;42.138;24.768;2022-09-01T08:34:20;99323.50;;;33.09;32.51
71151;BME280;59071;42.138;24.768;2022-09-01T08:36:45;99334.56;;;34.01;31.49
71151;BME280;59071;42.138;24.768;2022-09-01T08:39:10;99326.91;;;33.64;32.21
71151;BME280;59071;42.138;24.768;2022-09-01T08:41:43;99327.34;;;33.47;32.19
71151;BME280;59071;42.138;24.768;2022-09-01T08:44:17;99323.44;;;33.48;32.28
71151;BME280;59071;42.138;24.768;2022-09-01T08:46:45;99316.38;;;33.27;32.47
71151;BME280;59071;42.138;24.768;2022-09-01T08:49:18;99315.81;;;32.99;32.93
71151;BME280;59071;42.138;24.768;2022-09-01T08:54:31;99311.03;;;32.37;34.15
71151;BME280;59071;42.138;24.768;2022-09-01T08:57:05;99319.94;;;31.99;34.42
71151;BME280;59071;42.138;24.768;2022-09-01T08:59:31;99315.03;;;31.56;35.19
71151;BME280;59071;42.138;24.768;2022-09-01T09:02:20;99302.25;;;31.80;35.29
71151;BME280;59071;42.138;24.768;2022-09-01T09:08:07;99286.19;;;32.53;33.95
71151;BME280;59071;42.138;24.768;2022-09-01T09:15:54;99294.94;;;32.39;34.49
71151;BME280;59071;42.138;24.768;2022-09-01T09:18:46;99292.13;;;32.36;34.13
71151;BME280;59071;42.138;24.768;2022-09-01T09:21:19;99283.59;;;32.05;33.92
71151;BME280;59071;42.138;24.768;2022-09-01T09:23:49;99289.38;;;32.36;34.23
71151;BME280;59071;42.138;24.768;2022-09-01T09:26:19;99286.13;;;32.88;33.18
71151;BME280;59071;42.138;24.768;2022-09-01T09:28:46;99283.97;;;33.01;33.52
71151;BME280;59071;42.138;24.768;2022-09-01T09:31:37;99278.59;;;33.51;31.81
71151;BME280;59071;42.138;24.768;2022-09-01T09:36:51;99282.13;;;33.05;32.53
71151;BME280;59071;42.138;24.768;2022-09-01T09:39:17;99274.97;;;32.81;33.35
71151;BME280;59071;42.138;24.768;2022-09-01T09:42:01;99275.16;;;33.35;32.11
71151;BME280;59071;42.138;24.768;2022-09-01T09:44:30;99274.34;;;33.80;31.95
71151;BME280;59071;42.138;24.768;2022-09-01T09:46:57;99272.25;;;34.61;31.20
71151;BME280;59071;42.138;24.768;2022-09-01T09:52:15;99268.31;;;34.01;31.71
71151;BME280;59071;42.138;24.768;2022-09-01T09:54:59;99260.72;;;33.95;31.64
71151;BME280;59071;42.138;24.768;2022-09-01T09:57:25;99257.97;;;33.68;32.05
71151;BME280;59071;42.138;24.768;2022-09-01T10:04:52;99254.16;;;34.03;31.50
71151;BME280;59071;42.138;24.768;2022-09-01T10:09:47;99242.31;;;34.02;31.52
71151;BME280;59071;42.138;24.768;2022-09-01T10:12:14;99230.94;;;34.07;31.83
71151;BME280;59071;42.138;24.768;2022-09-01T10:14:41;99239.03;;;34.20;31.69
71151;BME280;59071;42.138;24.768;2022-09-01T10:17:14;99239.31;;;33.84;32.40
71151;BME280;59071;42.138;24.768;2022-09-01T10:19:55;99238.22;;;33.93;32.17
71151;BME280;59071;42.138;24.768;2022-09-01T10:22:21;99234.47;;;34.04;31.54
71151;BME280;59071;42.138;24.768;2022-09-01T10:24:48;99223.84;;;33.76;32.41
71151;BME280;59071;42.138;24.768;2022-09-01T10:27:22;99233.59;;;33.70;32.11
71151;BME280;59071;42.138;24.768;2022-09-01T10:32:53;99222.09;;;33.95;32.34
71151;BME280;59071;42.138;24.768;2022-09-01T10:37:46;99216.13;;;33.39;32.41
71151;BME280;59071;42.138;24.768;2022-09-01T10:42:57;99215.59;;;33.53;33.01
71151;BME280;59071;42.138;24.768;2022-09-01T10:45:32;99206.78;;;33.44;32.94
71151;BME280;59071;42.138;24.768;2022-09-01T10:50:55;99212.19;;;33.37;33.58
71151;BME280;59071;42.138;24.768;2022-09-01T10:53:39;99209.34;;;32.87;34.41
71151;BME280;59071;42.138;24.768;2022-09-01T10:56:14;99210.59;;;33.13;34.07
71151;BME280;59071;42.138;24.768;2022-09-01T11:04:16;99190.72;;;33.76;32.42
71151;BME280;59071;42.138;24.768;2022-09-01T11:14:30;99184.28;;;34.25;31.52
71151;BME280;59071;42.138;24.768;2022-09-01T11:22:21;99181.81;;;32.87;32.73
71151;BME280;59071;42.138;24.768;2022-09-01T11:25:12;99168.59;;;33.46;31.61
71151;BME280;59071;42.138;24.768;2022-09-01T11:31:13;99158.25;;;33.66;31.02
71151;BME280;59071;42.138;24.768;2022-09-01T11:36:15;99170.66;;;32.80;32.02
71151;BME280;59071;42.138;24.768;2022-09-01T11:41:29;99164.50;;;33.63;30.71
71151;BME280;59071;42.138;24.768;2022-09-01T11:43:59;99165.22;;;33.86;30.55
71151;BME280;59071;42.138;24.768;2022-09-01T11:46:34;99155.91;;;33.64;30.99
71151;BME280;59071;42.138;24.768;2022-09-01T11:49:06;99153.63;;;34.04;30.04
71151;BME280;59071;42.138;24.768;2022-09-01T11:51:50;99149.31;;;34.37;29.35
71151;BME280;59071;42.138;24.768;2022-09-01T11:54:16;99150.13;;;34.78;28.83
71151;BME280;59071;42.138;24.768;2022-09-01T11:56:41;99145.25;;;35.65;27.69
71151;BME280;59071;42.138;24.768;2022-09-01T11:59:07;99153.97;;;35.11;28.33
71151;BME280;59071;42.138;24.768;2022-09-01T12:01:35;99146.63;;;34.10;29.55
71151;BME280;59071;42.138;24.768;2022-09-01T12:04:25;99144.69;;;34.14;29.92
71151;BME280;59071;42.138;24.768;2022-09-01T12:07:00;99127.94;;;34.68;28.75
71151;BME280;59071;42.138;24.768;2022-09-01T12:09:46;99125.66;;;35.25;27.60
71151;BME280;59071;42.138;24.768;2022-09-01T12:12:32;99126.97;;;34.53;28.72
71151;BME280;59071;42.138;24.768;2022-09-01T12:17:27;99117.81;;;34.45;28.95
71151;BME280;59071;42.138;24.768;2022-09-01T12:19:52;99118.44;;;33.94;29.07
71151;BME280;59071;42.138;24.768;2022-09-01T12:22:19;99109.47;;;34.38;28.52
71151;BME280;59071;42.138;24.768;2022-09-01T12:24:49;99111.63;;;35.00;28.07
71151;BME280;59071;42.138;24.768;2022-09-01T12:27:15;99106.66;;;35.20;27.63
71151;BME280;59071;42.138;24.768;2022-09-01T12:29:41;99116.06;;;34.26;28.65
71151;BME280;59071;42.138;24.768;2022-09-01T12:32:07;99108.69;;;34.37;28.67
71151;BME280;59071;42.138;24.768;2022-09-01T12:37:09;99085.56;;;34.53;28.95
71151;BME280;59071;42.138;24.768;2022-09-01T12:39:42;99098.28;;;35.09;27.60
71151;BME280;59071;42.138;24.768;2022-09-01T12:44:48;99089.66;;;34.28;28.94
71151;BME280;59071;42.138;24.768;2022-09-01T12:52:51;99086.63;;;34.85;28.13
71151;BME280;59071;42.138;24.768;2022-09-01T12:55:21;99085.44;;;35.38;27.36
71151;BME280;59071;42.138;24.768;2022-09-01T12:57:52;99090.00;;;35.16;26.58
71151;BME280;59071;42.138;24.768;2022-09-01T13:00:24;99089.47;;;34.52;27.76
71151;BME280;59071;42.138;24.768;2022-09-01T13:03:04;99093.59;;;34.69;27.47
71151;BME280;59071;42.138;24.768;2022-09-01T13:05:36;99083.13;;;34.89;27.28
71151;BME280;59071;42.138;24.768;2022-09-01T13:08:16;99089.59;;;35.14;27.82
71151;BME280;59071;42.138;24.768;2022-09-01T13:10:54;99092.56;;;35.47;26.32
71151;BME280;59071;42.138;24.768;2022-09-01T13:13:21;99085.63;;;35.12;26.64
71151;BME280;59071;42.138;24.768;2022-09-01T13:15:57;99082.00;;;34.52;27.16
71151;BME280;59071;42.138;24.768;2022-09-01T13:18:37;99078.25;;;34.71;26.75
71151;BME280;59071;42.138;24.768;2022-09-01T13:21:03;99076.47;;;35.00;26.40
71151;BME280;59071;42.138;24.768;2022-09-01T13:23:29;99069.44;;;35.76;25.38
71151;BME280;59071;42.138;24.768;2022-09-01T13:25:55;99066.13;;;35.46;26.14
71151;BME280;59071;42.138;24.768;2022-09-01T13:28:23;99070.84;;;35.41;26.23
71151;BME280;59071;42.138;24.768;2022-09-01T13:30:54;99074.44;;;34.94;27.28
71151;BME280;59071;42.138;24.768;2022-09-01T13:33:21;99069.69;;;34.46;28.08
71151;BME280;59071;42.138;24.768;2022-09-01T13:35:48;99065.66;;;34.36;28.07
71151;BME280;59071;42.138;24.768;2022-09-01T13:38:14;99063.66;;;34.74;28.01
71151;BME280;59071;42.138;24.768;2022-09-01T13:40:41;99068.41;;;34.74;27.57
71151;BME280;59071;42.138;24.768;2022-09-01T13:43:08;99067.22;;;34.34;28.22
71151;BME280;59071;42.138;24.768;2022-09-01T13:45:33;99069.50;;;34.24;27.47
71151;BME280;59071;42.138;24.768;2022-09-01T13:47:59;99065.44;;;34.15;28.07
71151;BME280;59071;42.138;24.768;2022-09-01T13:50:25;99062.25;;;34.13;28.02
71151;BME280;59071;42.138;24.768;2022-09-01T13:52:54;99069.97;;;34.71;27.39
71151;BME280;59071;42.138;24.768;2022-09-01T13:55:23;99068.25;;;34.18;28.10
71151;BME280;59071;42.138;24.768;2022-09-01T13:57:49;99051.09;;;33.68;28.68
71151;BME280;59071;42.138;24.768;2022-09-01T14:00:21;99061.91;;;33.80;28.53
71151;BME280;59071;42.138;24.768;2022-09-01T14:02:51;99064.84;;;33.34;28.95
71151;BME280;59071;42.138;24.768;2022-09-01T14:05:22;99056.34;;;33.46;28.53
71151;BME280;59071;42.138;24.768;2022-09-01T14:07:48;99056.16;;;33.96;27.86
71151;BME280;59071;42.138;24.768;2022-09-01T14:10:15;99056.78;;;33.22;29.31
71151;BME280;59071;42.138;24.768;2022-09-01T14:12:41;99050.47;;;32.95;30.26
71151;BME280;59071;42.138;24.768;2022-09-01T14:15:09;99052.69;;;32.85;30.30
71151;BME280;59071;42.138;24.768;2022-09-01T14:17:35;99054.97;;;33.06;29.92
71151;BME280;59071;42.138;24.768;2022-09-01T14:20:03;99050.84;;;33.20;29.49
71151;BME280;59071;42.138;24.768;2022-09-01T14:22:29;99050.66;;;33.32;29.19
71151;BME280;59071;42.138;24.768;2022-09-01T14:24:54;99049.22;;;33.15;30.12
71151;BME280;59071;42.138;24.768;2022-09-01T14:27:20;99047.50;;;33.07;29.54